CheckWX is a tool to help pilots better visualize weather data.  It is not intended as a substitute for an official pre-flight weather briefing.

09:54:37 UTC

FNBG METAR
Benguela Airport
Benguela, Angola
Current

20 hours ago

FNBG 201400Z 34004KT 9999 FEW020 FEW030CB 29/21 Q1007
Observed
Mar-20 @ 14:00 UTC
Wind
  • 340° at 4 KTS
Visibility
10,000+ meters
Flight Rules
VFR
Cloud Levels
  • Few at 2,000' AGL
  • Few at 3,000' AGL
Temperature
29°C / 84°F
Dewpoint
21°C / 70°F
Humidity
62%
Altimeter
29.73" Hg
Pressure
1006.92 hPa